Time;durP1;ratioP1;P1;durP2;ratioP2;P2;SDS_P1;SDS_P2;PMS_P1;PMS_P2;Temp;Humidity;BMP_temperature;BMP_pressure;BME280_temperature;BME280_humidity;BME280_pressure;Samples;Min_cycle;Max_cycle;Signal;HPM_P1;HPM_P2
2023/05/01 00:01:16;;;;;;;57.20;52.00;;;;;;;21.34;41.16;95008.22;5929991;29;109070;-61
2023/05/01 00:04:21;;;;;;;57.97;52.87;;;;;;;21.34;41.01;95011.69;5922883;29;109159;-61
2023/05/01 00:07:24;;;;;;;57.30;52.30;;;;;;;21.32;40.96;95013.84;5930984;29;108899;-62
2023/05/01 00:10:27;;;;;;;56.30;51.50;;;;;;;21.20;41.25;94994.97;5931671;29;108887;-61
2023/05/01 00:13:30;;;;;;;57.37;52.43;;;;;;;21.29;40.92;95018.97;5938995;29;109060;-61
2023/05/01 00:16:36;;;;;;;57.67;52.77;;;;;;;21.35;40.78;95025.78;5918315;29;108924;-62
2023/05/01 00:19:39;;;;;;;57.20;52.40;;;;;;;21.31;41.36;95019.47;5922317;29;108912;-61
2023/05/01 00:22:42;;;;;;;54.47;49.83;;;;;;;21.30;41.09;95024.00;5944687;29;108987;-62
2023/05/01 00:25:45;;;;;;;55.43;50.57;;;;;;;21.21;40.86;95010.63;5936950;29;109497;-62
2023/05/01 00:28:49;;;;;;;57.10;52.07;;;;;;;21.31;41.28;95020.25;5939216;29;108943;-61
2023/05/01 00:31:54;;;;;;;56.60;51.70;;;;;;;21.32;40.79;95026.38;5934825;29;108911;-61
2023/05/01 00:34:57;;;;;;;59.50;54.20;;;;;;;21.24;40.95;95019.09;5924159;29;108821;-62
2023/05/01 00:38:00;;;;;;;57.03;52.10;;;;;;;21.32;40.81;95029.03;5907689;29;109818;-61
2023/05/01 00:41:03;;;;;;;57.10;52.20;;;;;;;21.31;40.81;95030.13;5932420;29;110048;-61
2023/05/01 00:44:06;;;;;;;56.73;51.83;;;;;;;21.31;40.80;95035.44;5946131;29;108944;-61
2023/05/01 00:47:11;;;;;;;56.60;51.60;;;;;;;21.30;40.61;95032.00;5914392;29;110835;-62
2023/05/01 00:50:14;;;;;;;56.63;51.67;;;;;;;21.29;40.75;95033.09;5931972;29;109879;-67
2023/05/01 00:53:18;;;;;;;54.83;49.60;;;;;;;21.28;40.76;95030.72;5935528;29;108932;-61
2023/05/01 00:56:22;;;;;;;53.50;48.80;;;;;;;21.26;40.73;95032.91;5938444;29;108997;-62
2023/05/01 00:59:25;;;;;;;56.47;51.53;;;;;;;21.30;40.67;95049.84;5924581;29;109441;-62
2023/05/01 01:02:29;;;;;;;54.13;49.53;;;;;;;21.27;40.58;95043.25;5941975;29;108921;-63
2023/05/01 01:05:38;;;;;;;53.63;49.00;;;;;;;21.27;40.78;95047.78;5932960;29;108989;-61
2023/05/01 01:08:49;;;;;;;55.10;50.10;;;;;;;21.28;40.74;95052.81;5927860;29;108764;-62
2023/05/01 01:12:03;;;;;;;53.27;48.57;;;;;;;21.28;40.95;95049.34;5920796;29;109200;-62
2023/05/01 01:15:14;;;;;;;53.93;49.13;;;;;;;21.26;40.47;95049.66;5938691;29;108896;-62
2023/05/01 01:18:24;;;;;;;53.13;48.53;;;;;;;21.25;40.88;95066.72;5927685;29;109076;-61
2023/05/01 01:21:33;;;;;;;53.30;48.60;;;;;;;21.23;40.58;95068.88;5939493;29;110180;-64
2023/05/01 01:25:09;;;;;;;51.83;47.40;;;;;;;21.25;40.65;95063.25;5945010;29;109229;-62
2023/05/01 01:28:32;;;;;;;52.47;47.90;;;;;;;21.23;40.84;95071.53;5928261;29;109045;-62
2023/05/01 01:31:47;;;;;;;52.00;47.30;;;;;;;21.21;40.57;95069.19;5926782;29;108855;-61
2023/05/01 01:34:55;;;;;;;52.57;48.10;;;;;;;21.22;40.45;95069.97;5920699;29;110787;-61
2023/05/01 01:38:04;;;;;;;50.53;46.23;;;;;;;21.22;40.64;95069.97;5947218;29;108684;-61
2023/05/01 01:41:12;;;;;;;50.83;46.57;;;;;;;21.22;40.85;95069.97;5928167;29;108858;-62
2023/05/01 01:44:20;;;;;;;50.07;45.47;;;;;;;21.17;40.83;95062.09;5921347;29;108910;-61
2023/05/01 01:47:27;;;;;;;51.93;47.30;;;;;;;21.21;40.46;95068.41;5911043;29;111141;-61
2023/05/01 01:50:33;;;;;;;50.80;46.50;;;;;;;21.24;40.32;95067.00;5907651;29;108985;-62
2023/05/01 01:53:39;;;;;;;53.00;48.37;;;;;;;21.19;40.42;95054.59;5932574;29;108982;-61
2023/05/01 01:56:43;;;;;;;50.60;46.10;;;;;;;21.16;40.71;95055.19;5921262;29;108963;-62
2023/05/01 01:59:47;;;;;;;52.10;47.70;;;;;;;21.22;40.38;95059.34;5938866;29;109035;-62
2023/05/01 02:02:52;;;;;;;51.77;47.37;;;;;;;21.15;40.64;95049.06;5926855;29;108894;-61
2023/05/01 02:05:59;;;;;;;50.27;45.87;;;;;;;21.15;40.32;95050.94;5946810;29;108990;-61
2023/05/01 02:09:05;;;;;;;49.87;45.63;;;;;;;21.19;40.55;95059.94;5938107;29;109112;-61
2023/05/01 02:12:09;;;;;;;48.60;44.40;;;;;;;21.15;40.73;95053.59;5933644;29;108977;-61
2023/05/01 02:15:15;;;;;;;47.37;43.37;;;;;;;21.16;40.66;95058.63;5926952;29;108863;-61
2023/05/01 02:18:19;;;;;;;48.87;44.57;;;;;;;21.17;40.98;95054.09;5902837;29;108940;-61
2023/05/01 02:21:25;;;;;;;49.57;45.17;;;;;;;21.17;40.75;95051.44;5920507;29;108882;-61
2023/05/01 02:24:30;;;;;;;47.40;43.40;;;;;;;21.15;40.90;95049.06;5936688;29;108946;-61
2023/05/01 02:27:38;;;;;;;51.13;46.47;;;;;;;21.15;40.67;95054.41;5931051;29;108903;-62
2023/05/01 02:30:41;;;;;;;50.93;46.53;;;;;;;21.14;40.61;95039.53;5916631;29;109262;-61
2023/05/01 02:33:44;;;;;;;50.83;46.53;;;;;;;21.16;40.53;95060.50;5929580;29;108924;-61
2023/05/01 02:36:49;;;;;;;51.47;47.07;;;;;;;21.16;40.36;95055.97;5935085;29;108917;-62
2023/05/01 02:39:53;;;;;;;51.37;46.87;;;;;;;21.16;40.81;95050.66;5948001;29;109020;-62
2023/05/01 02:42:57;;;;;;;51.60;47.10;;;;;;;21.17;40.31;95054.09;5916541;29;110979;-61
2023/05/01 02:46:03;;;;;;;53.33;48.60;;;;;;;21.15;40.47;95049.06;5921392;29;108919;-61
2023/05/01 02:49:07;;;;;;;51.93;47.20;;;;;;;21.14;40.76;95052.81;5947704;29;108906;-61
2023/05/01 02:52:12;;;;;;;50.97;46.47;;;;;;;21.14;40.47;95052.03;5928735;29;109214;-64
2023/05/01 02:55:16;;;;;;;51.67;47.27;;;;;;;21.15;40.56;95057.06;5907895;29;108967;-61
2023/05/01 02:58:20;;;;;;;52.97;48.27;;;;;;;21.15;40.75;95059.72;5929097;29;108873;-62
2023/05/01 03:01:24;;;;;;;52.50;47.87;;;;;;;20.84;40.67;95017.00;5926703;29;108966;-61
2023/05/01 03:04:27;;;;;;;52.07;47.27;;;;;;;21.15;40.58;95058.94;5915848;29;108969;-61
2023/05/01 03:07:34;;;;;;;50.87;46.47;;;;;;;21.15;40.72;95065.03;5934251;29;109082;-61
2023/05/01 03:10:40;;;;;;;50.90;46.33;;;;;;;21.14;40.39;95079.44;5947344;29;108860;-66
2023/05/01 03:13:43;;;;;;;51.60;47.00;;;;;;;21.14;40.73;95076.78;5945755;29;109046;-65
2023/05/01 03:16:46;;;;;;;48.27;44.17;;;;;;;21.09;40.62;95076.09;5921107;29;110155;-62
2023/05/01 03:19:50;;;;;;;49.93;45.53;;;;;;;21.12;40.65;95072.84;5947824;29;108955;-62
2023/05/01 03:22:54;;;;;;;52.30;47.47;;;;;;;21.14;40.33;95076.00;5927835;29;109147;-63
2023/05/01 03:25:58;;;;;;;49.57;45.23;;;;;;;21.10;40.46;95078.47;5925350;29;108896;-63
2023/05/01 03:29:01;;;;;;;48.67;44.40;;;;;;;21.12;40.59;95086.16;5935410;29;110048;-63
2023/05/01 03:32:04;;;;;;;49.27;44.83;;;;;;;21.08;40.59;95085.97;5944356;29;108972;-61
2023/05/01 03:35:09;;;;;;;47.47;43.20;;;;;;;21.07;40.42;95083.59;5910996;29;108936;-61
2023/05/01 03:38:14;;;;;;;45.10;41.10;;;;;;;21.06;40.21;95085.47;5922741;29;109115;-61
2023/05/01 03:41:17;;;;;;;45.27;41.37;;;;;;;21.06;40.20;95092.66;5934821;29;109308;-61
2023/05/01 03:44:20;;;;;;;41.07;37.70;;;;;;;21.09;40.49;95102.72;5940942;29;108864;-61
2023/05/01 03:47:23;;;;;;;43.80;39.90;;;;;;;21.09;40.36;95097.38;5932616;29;108899;-61
2023/05/01 03:50:26;;;;;;;41.83;38.17;;;;;;;21.05;40.39;95104.41;5936093;29;109321;-61
2023/05/01 03:53:31;;;;;;;43.27;39.57;;;;;;;21.06;40.80;95108.63;5931907;29;108942;-61
2023/05/01 03:56:35;;;;;;;40.97;37.27;;;;;;;21.07;40.42;95107.53;5925690;29;108898;-61
2023/05/01 03:59:38;;;;;;;29.33;26.77;;;;;;;20.98;40.71;95114.59;5946902;29;109002;-60
2023/05/01 04:02:41;;;;;;;20.50;18.70;;;;;;;20.79;39.51;95112.81;5917024;29;108918;-60
2023/05/01 04:05:45;;;;;;;18.40;16.70;;;;;;;20.61;39.27;95119.03;5924318;29;108930;-61
2023/05/01 04:08:49;;;;;;;17.73;16.13;;;;;;;20.55;39.61;95110.38;5924576;29;108942;-60
2023/05/01 04:11:52;;;;;;;16.97;15.57;;;;;;;20.54;39.32;95115.97;5937396;29;109051;-60
2023/05/01 04:14:55;;;;;;;15.80;14.40;;;;;;;20.48;39.32;95109.94;5937755;29;109085;-60
2023/05/01 04:17:58;;;;;;;13.30;12.20;;;;;;;20.42;39.16;95113.78;5931908;29;108930;-60
2023/05/01 04:21:01;;;;;;;11.10;10.10;;;;;;;20.43;38.91;95112.69;5939137;29;108912;-66
2023/05/01 04:24:06;;;;;;;10.63;9.73;;;;;;;20.25;38.97;95116.22;5926914;29;109921;-60
2023/05/01 04:27:10;;;;;;;10.17;9.37;;;;;;;20.24;38.92;95114.59;5938998;29;109193;-60
2023/05/01 04:30:13;;;;;;;8.70;7.90;;;;;;;20.26;38.66;95110.59;5940087;29;108936;-60
2023/05/01 04:33:16;;;;;;;8.43;7.73;;;;;;;20.28;38.50;95119.06;5934888;29;109000;-62
2023/05/01 04:36:19;;;;;;;7.17;6.57;;;;;;;20.23;38.57;95124.44;5919883;29;109209;-61
2023/05/01 04:39:23;;;;;;;6.83;6.23;;;;;;;20.23;38.17;95127.09;5938291;29;108911;-61
2023/05/01 04:42:30;;;;;;;6.47;5.97;;;;;;;20.19;38.01;95118.13;5905560;29;108975;-62
2023/05/01 04:45:33;;;;;;;6.33;5.83;;;;;;;20.22;38.27;95124.75;5936513;29;108929;-61
2023/05/01 04:48:36;;;;;;;7.60;5.07;;;;;;;20.24;38.26;95125.22;5928463;29;111299;-69
2023/05/01 04:51:40;;;;;;;7.10;5.23;;;;;;;20.46;37.73;95128.06;5950470;29;108553;-67
2023/05/01 04:54:44;;;;;;;5.77;5.13;;;;;;;20.41;38.39;95132.69;5944828;29;108920;-68
2023/05/01 04:57:47;;;;;;;8.23;5.50;;;;;;;20.42;38.60;95127.06;5921572;29;109225;-65
2023/05/01 05:00:50;;;;;;;5.80;5.17;;;;;;;20.53;38.33;95133.78;5937935;29;108845;-65
2023/05/01 05:03:53;;;;;;;5.60;5.10;;;;;;;20.62;38.37;95136.56;5936109;29;108926;-64
2023/05/01 05:06:56;;;;;;;5.20;4.13;;;;;;;20.62;38.46;95136.56;5935934;29;108900;-64
2023/05/01 05:10:01;;;;;;;6.50;5.67;;;;;;;20.57;38.24;95139.31;5931417;29;108969;-64
2023/05/01 05:13:04;;;;;;;7.23;5.17;;;;;;;20.57;38.30;95152.59;5945495;29;108963;-64
2023/05/01 05:16:07;;;;;;;10.63;5.77;;;;;;;20.36;38.43;95127.47;5944904;29;108992;-68
2023/05/01 05:19:10;;;;;;;11.43;5.40;;;;;;;20.51;38.66;95148.47;5927705;29;109090;-66
2023/05/01 05:22:14;;;;;;;12.13;5.40;;;;;;;20.56;39.10;95157.13;5922707;29;109039;-69
2023/05/01 05:25:19;;;;;;;12.30;5.90;;;;;;;20.55;39.01;95157.44;5928360;29;109003;-69
2023/05/01 05:28:22;;;;;;;7.33;5.73;;;;;;;20.55;39.27;95160.09;5932116;29;109067;-69
2023/05/01 05:31:25;;;;;;;6.17;5.30;;;;;;;20.64;38.75;95158.31;5927808;29;108911;-69
2023/05/01 05:34:29;;;;;;;5.80;4.87;;;;;;;20.72;38.96;95168.28;5940767;29;109227;-66
2023/05/01 05:37:32;;;;;;;7.33;5.23;;;;;;;20.77;38.83;95162.06;5938730;29;109409;-69
2023/05/01 05:40:36;;;;;;;5.90;5.30;;;;;;;20.81;38.99;95171.03;5934859;29;109172;-68
2023/05/01 05:43:39;;;;;;;10.50;6.10;;;;;;;20.81;38.73;95166.50;5935650;29;108992;-71
2023/05/01 05:46:42;;;;;;;14.33;7.10;;;;;;;21.02;40.12;95174.94;5933535;29;108973;-70
2023/05/01 05:49:45;;;;;;;9.00;5.20;;;;;;;21.09;39.53;95178.00;5941841;29;110188;-73
2023/05/01 05:52:48;;;;;;;11.33;5.17;;;;;;;21.06;39.23;95164.50;5922681;29;109133;-64
2023/05/01 05:55:53;;;;;;;18.63;5.93;;;;;;;21.17;39.66;95177.31;5915649;29;108843;-65
2023/05/01 05:58:57;;;;;;;11.40;5.77;;;;;;;21.22;39.59;95176.44;5925803;29;109092;-64
2023/05/01 06:02:00;;;;;;;8.37;6.00;;;;;;;21.20;39.62;95173.28;5926388;29;110261;-63
2023/05/01 06:05:04;;;;;;;8.10;4.57;;;;;;;21.30;38.93;95180.25;5925644;29;108881;-65
2023/05/01 06:08:09;;;;;;;5.70;5.00;;;;;;;21.29;39.30;95176.81;5914396;29;110274;-64
2023/05/01 06:11:13;;;;;;;7.17;5.27;;;;;;;21.39;39.23;95183.81;5932655;29;108926;-64
2023/05/01 06:14:17;;;;;;;7.63;5.10;;;;;;;21.41;39.16;95185.09;5925822;29;108913;-64
2023/05/01 06:17:20;;;;;;;6.37;5.83;;;;;;;21.46;39.40;95176.19;5918704;29;108783;-65
2023/05/01 06:20:23;;;;;;;8.77;5.70;;;;;;;21.48;39.42;95166.81;5937105;29;108919;-69
2023/05/01 06:23:27;;;;;;;8.33;5.43;;;;;;;21.63;40.17;95189.69;5935197;29;108919;-65
2023/05/01 06:26:31;;;;;;;8.60;5.50;;;;;;;21.67;40.58;95192.53;5924879;29;109044;-64
2023/05/01 06:29:35;;;;;;;5.60;5.10;;;;;;;21.68;40.55;95183.47;5894480;29;109601;-64
2023/05/01 06:32:40;;;;;;;5.87;5.33;;;;;;;21.72;40.80;95184.44;5926563;29;108641;-63
2023/05/01 06:35:44;;;;;;;8.00;5.10;;;;;;;21.71;40.81;95186.31;5942417;29;108823;-64
2023/05/01 06:38:48;;;;;;;7.60;5.43;;;;;;;21.74;40.92;95188.38;5925589;29;109070;-64
2023/05/01 06:41:53;;;;;;;5.93;5.13;;;;;;;21.78;40.82;95191.22;5932096;29;109178;-64
2023/05/01 06:44:56;;;;;;;6.03;5.43;;;;;;;21.80;40.80;95189.06;5922058;29;108832;-64
2023/05/01 06:47:59;;;;;;;6.50;5.83;;;;;;;21.78;40.91;95184.03;5925822;29;109163;-66
2023/05/01 06:51:02;;;;;;;9.03;5.70;;;;;;;21.83;40.89;95188.47;5941752;29;108951;-66
2023/05/01 06:54:05;;;;;;;6.87;5.30;;;;;;;21.85;40.61;95188.22;5942338;29;109117;-72
2023/05/01 06:57:10;;;;;;;6.30;5.70;;;;;;;21.87;40.83;95186.81;5925143;29;109007;-66
2023/05/01 07:00:16;;;;;;;6.60;5.97;;;;;;;21.92;40.36;95191.22;5925984;29;109091;-66
2023/05/01 07:03:19;;;;;;;6.40;5.90;;;;;;;21.92;40.61;95196.56;5930492;29;109063;-72
2023/05/01 07:06:22;;;;;;;6.47;5.83;;;;;;;21.97;40.51;95188.44;5934037;29;108959;-71
2023/05/01 07:09:25;;;;;;;7.50;6.77;;;;;;;21.99;40.50;95191.59;5932552;29;108831;-73
2023/05/01 07:12:30;;;;;;;7.53;6.70;;;;;;;21.98;39.98;95193.47;5928730;29;108941;-74
2023/05/01 07:15:33;;;;;;;7.50;6.90;;;;;;;21.98;40.45;95193.47;5938062;29;109271;-73
2023/05/01 07:18:36;;;;;;;7.50;6.70;;;;;;;22.04;40.44;95196.84;5929158;29;109291;-71
2023/05/01 07:21:41;;;;;;;12.23;7.43;;;;;;;22.05;40.92;95198.41;5932417;29;109103;-71
2023/05/01 07:24:44;;;;;;;13.80;11.03;;;;;;;21.88;40.96;95203.59;5927403;29;108965;-66
2023/05/01 07:27:49;;;;;;;15.03;10.27;;;;;;;21.94;41.12;95203.16;5909568;29;108986;-65
2023/05/01 07:30:52;;;;;;;17.90;9.30;;;;;;;21.87;41.24;95199.34;5914749;29;109206;-67
2023/05/01 07:33:55;;;;;;;9.13;8.23;;;;;;;21.94;41.39;95200.50;5928650;29;108998;-67
2023/05/01 07:36:58;;;;;;;13.47;7.70;;;;;;;22.03;41.18;95204.03;5919521;29;108940;-66
2023/05/01 07:40:01;;;;;;;18.23;9.20;;;;;;;22.02;42.01;95205.13;5945326;29;109026;-66
2023/05/01 07:43:06;;;;;;;10.70;9.80;;;;;;;21.56;40.38;95193.84;5937645;29;108924;-66
2023/05/01 07:46:10;;;;;;;10.73;9.73;;;;;;;21.09;41.57;95206.47;5918936;29;108930;-66
2023/05/01 07:49:13;;;;;;;11.57;10.67;;;;;;;20.85;42.22;95204.75;5913054;29;108937;-65
2023/05/01 07:52:16;;;;;;;12.30;9.70;;;;;;;21.34;41.53;95200.69;5916632;29;108988;-66
2023/05/01 07:55:21;;;;;;;11.90;8.40;;;;;;;21.69;41.62;95199.16;5910565;29;108976;-62
2023/05/01 07:58:26;;;;;;;8.37;7.57;;;;;;;21.87;41.27;95200.13;5935043;29;108872;-62
2023/05/01 08:01:29;;;;;;;13.23;8.27;;;;;;;22.09;41.59;95202.81;5927583;29;108991;-67
2023/05/01 08:04:32;;;;;;;16.50;9.50;;;;;;;22.20;42.21;95194.59;5929208;29;108825;-62
2023/05/01 08:07:35;;;;;;;12.90;7.63;;;;;;;22.23;42.25;95194.00;5932614;29;109115;-63
2023/05/01 08:10:38;;;;;;;34.37;8.57;;;;;;;22.28;43.15;95193.88;5920644;29;109034;-62
2023/05/01 08:13:43;;;;;;;15.47;7.60;;;;;;;22.41;43.36;95190.34;5931295;29;108910;-62
2023/05/01 08:16:46;;;;;;;14.73;8.00;;;;;;;22.49;43.58;95197.59;5931205;29;109132;-62
2023/05/01 08:19:50;;;;;;;20.57;9.10;;;;;;;22.57;44.41;95191.59;5937455;29;109020;-62
2023/05/01 08:22:53;;;;;;;16.73;7.70;;;;;;;22.63;45.15;95202.91;5913102;29;109150;-62
2023/05/01 08:25:56;;;;;;;21.37;8.10;;;;;;;22.59;45.38;95201.94;5940904;29;108954;-63
2023/05/01 08:29:01;;;;;;;21.83;10.50;;;;;;;22.64;45.53;95204.47;5930981;29;109061;-62
2023/05/01 08:32:04;;;;;;;11.47;8.10;;;;;;;22.69;45.58;95201.72;5922875;29;108887;-62
2023/05/01 08:35:08;;;;;;;10.27;8.40;;;;;;;22.68;46.34;95200.09;5915232;29;109056;-62
2023/05/01 08:38:11;;;;;;;18.17;10.10;;;;;;;22.69;47.90;95193.72;5929149;29;109095;-63
2023/05/01 08:41:21;;;;;;;17.70;9.53;;;;;;;22.79;47.81;95196.09;5931998;29;108860;-62
2023/05/01 08:44:27;;;;;;;22.23;9.90;;;;;;;22.78;48.95;95199.06;5921874;29;108919;-64
2023/05/01 08:47:31;;;;;;;20.73;9.70;;;;;;;22.76;47.79;95194.03;5926073;29;108882;-65
2023/05/01 08:50:36;;;;;;;17.30;9.10;;;;;;;22.64;47.65;95194.59;5923125;29;108849;-63
2023/05/01 08:53:41;;;;;;;12.53;8.50;;;;;;;22.56;47.42;95192.66;5923494;29;108891;-61
2023/05/01 08:56:46;;;;;;;8.57;7.73;;;;;;;22.58;47.33;95195.81;5913116;29;108973;-62
2023/05/01 08:59:53;;;;;;;10.97;7.80;;;;;;;22.53;46.81;95181.81;5923010;29;108946;-62
2023/05/01 09:03:01;;;;;;;12.67;8.10;;;;;;;22.55;46.77;95191.06;5921742;29;108729;-62
2023/05/01 09:06:04;;;;;;;9.53;7.20;;;;;;;22.65;45.91;95180.16;5942988;29;108915;-62
2023/05/01 09:09:07;;;;;;;10.60;6.80;;;;;;;22.66;46.07;95173.75;5914078;29;108914;-62
2023/05/01 09:12:21;;;;;;;10.90;6.73;;;;;;;22.70;46.27;95180.06;5926002;29;109107;-61
2023/05/01 09:15:26;;;;;;;7.20;6.17;;;;;;;22.70;45.69;95181.94;5926490;29;108761;-61
2023/05/01 09:18:30;;;;;;;9.60;6.70;;;;;;;22.70;45.29;95172.06;5929297;29;108837;-65
2023/05/01 09:21:33;;;;;;;7.07;5.77;;;;;;;22.76;45.55;95183.38;5929051;29;108933;-66
2023/05/01 09:24:37;;;;;;;7.37;6.07;;;;;;;22.79;44.87;95182.75;5935910;29;109027;-65
2023/05/01 09:27:40;;;;;;;8.90;5.63;;;;;;;22.82;45.18;95179.47;5933430;29;108987;-66
2023/05/01 09:30:45;;;;;;;7.77;5.90;;;;;;;22.84;45.44;95182.63;5913768;29;108861;-64
2023/05/01 09:33:58;;;;;;;8.17;5.80;;;;;;;22.81;45.03;95180.56;5926691;29;108933;-64
2023/05/01 09:37:01;;;;;;;7.43;6.00;;;;;;;22.80;45.10;95176.31;5931866;29;108962;-65
2023/05/01 09:40:07;;;;;;;9.37;5.70;;;;;;;22.87;44.47;95183.91;5932758;29;109229;-69
2023/05/01 09:43:10;;;;;;;6.50;5.40;;;;;;;22.82;44.68;95179.47;5916576;29;109312;-65
2023/05/01 09:46:15;;;;;;;6.87;6.20;;;;;;;22.73;44.53;95180.53;5949097;29;108895;-65
2023/05/01 09:49:19;;;;;;;7.90;5.67;;;;;;;22.69;44.11;95181.16;5935836;29;108916;-63
2023/05/01 09:52:22;;;;;;;7.20;6.03;;;;;;;22.71;43.24;95175.50;5918828;29;108915;-64
2023/05/01 09:55:25;;;;;;;6.53;3.80;;;;;;;22.29;39.17;95171.44;5921922;29;109133;-64
2023/05/01 09:58:28;;;;;;;7.03;4.93;;;;;;;22.37;40.34;95168.84;5930398;29;109011;-65
2023/05/01 10:01:40;;;;;;;5.53;3.83;;;;;;;22.61;40.26;95165.88;5929559;29;109052;-64
2023/05/01 10:04:43;;;;;;;5.63;3.60;;;;;;;22.70;40.56;95160.59;5918951;29;109423;-63
2023/05/01 10:07:57;;;;;;;4.53;3.83;;;;;;;22.75;41.52;95157.78;5925703;29;109085;-63
2023/05/01 10:11:04;;;;;;;5.00;4.50;;;;;;;22.81;41.41;95163.78;5926338;29;109028;-64
2023/05/01 10:14:08;;;;;;;4.47;4.17;;;;;;;22.81;42.29;95167.22;5944841;29;108959;-64
2023/05/01 10:17:18;;;;;;;7.93;4.30;;;;;;;22.85;42.97;95154.88;5933663;29;109617;-64
2023/05/01 10:20:22;;;;;;;3.90;3.60;;;;;;;22.68;42.21;95160.09;5933413;29;108917;-66
2023/05/01 10:23:26;;;;;;;4.33;3.87;;;;;;;22.69;42.46;95151.81;5927231;29;108978;-66
2023/05/01 10:26:29;;;;;;;4.33;3.93;;;;;;;22.68;43.46;95144.09;5926249;29;108942;-66
2023/05/01 10:29:35;;;;;;;5.03;4.53;;;;;;;22.72;44.13;95152.28;5917394;29;108924;-66
2023/05/01 10:32:42;;;;;;;4.90;4.50;;;;;;;22.69;43.35;95146.47;5925884;29;108946;-68
2023/05/01 10:35:54;;;;;;;4.80;4.40;;;;;;;22.72;43.43;95138.94;5926388;29;108971;-65
2023/05/01 10:38:57;;;;;;;3.90;3.60;;;;;;;22.74;43.90;95144.75;5919885;29;109628;-65
2023/05/01 10:42:04;;;;;;;4.63;4.17;;;;;;;22.77;43.85;95147.59;5926845;29;109195;-65
2023/05/01 10:45:29;;;;;;;4.70;4.30;;;;;;;22.74;44.44;95147.44;5931042;29;109134;-66
2023/05/01 10:52:06;;;;;;;4.60;4.20;;;;;;;22.74;45.34;95150.09;6249469;27;109726;-67
2023/05/01 10:55:35;;;;;;;4.63;4.33;;;;;;;22.72;46.38;95150.41;6246154;27;108853;-67
2023/05/01 10:58:58;;;;;;;5.30;4.80;;;;;;;22.72;45.59;95146.94;6210937;28;110005;-65
2023/05/01 11:02:22;;;;;;;5.37;4.87;;;;;;;22.73;45.81;95148.53;6230142;27;111880;-65
2023/05/01 11:06:07;;;;;;;4.83;4.43;;;;;;;22.73;46.24;95148.53;6209585;28;109266;-68
2023/05/01 11:09:38;;;;;;;4.77;4.37;;;;;;;22.70;46.78;95153.38;6200209;28;109245;-65
2023/05/01 11:12:51;;;;;;;5.13;4.63;;;;;;;22.70;46.53;95144.59;6190518;28;109960;-64
2023/05/01 11:15:54;;;;;;;5.00;4.60;;;;;;;22.68;46.83;95147.56;6218065;28;108933;-65
2023/05/01 11:18:58;;;;;;;5.03;4.73;;;;;;;22.66;45.97;95149.72;6219350;27;109343;-66
2023/05/01 11:22:01;;;;;;;4.43;4.03;;;;;;;22.65;45.66;95145.50;6208059;28;108738;-66
2023/05/01 11:25:22;;;;;;;4.20;3.90;;;;;;;22.55;45.34;95151.06;6202458;27;110312;-66
2023/05/01 11:28:25;;;;;;;4.13;3.83;;;;;;;22.50;44.69;95159.19;6205483;28;108993;-66
2023/05/01 11:31:29;;;;;;;4.93;3.90;;;;;;;22.48;43.30;95153.38;6217609;28;109073;-66
2023/05/01 11:34:36;;;;;;;4.37;3.97;;;;;;;22.52;43.66;95159.69;6216248;27;109139;-66
2023/05/01 11:37:41;;;;;;;3.90;3.60;;;;;;;22.39;43.23;95158.66;6212018;27;110125;-60
2023/05/01 11:40:54;;;;;;;3.80;3.50;;;;;;;22.46;42.08;95171.56;6207386;28;109226;-62
2023/05/01 11:43:58;;;;;;;4.97;3.23;;;;;;;22.42;41.54;95166.06;6204872;27;109664;-66
2023/05/01 11:47:02;;;;;;;3.17;2.73;;;;;;;22.40;40.47;95162.13;6204532;28;111496;-67
2023/05/01 11:50:06;;;;;;;3.20;2.90;;;;;;;22.40;40.32;95170.13;6215083;27;110036;-66
2023/05/01 11:53:14;;;;;;;2.83;2.63;;;;;;;22.36;39.86;95156.63;6206089;28;109155;-67
2023/05/01 11:56:20;;;;;;;3.63;2.67;;;;;;;22.36;39.35;95164.63;6210339;28;108935;-66
2023/05/01 11:59:29;;;;;;;3.00;2.43;;;;;;;22.38;38.98;95159.75;6200733;28;109982;-67
2023/05/01 12:02:32;;;;;;;2.50;2.30;;;;;;;22.39;39.16;95172.00;6212421;27;109231;-68
2023/05/01 12:05:37;;;;;;;2.43;2.23;;;;;;;22.33;38.52;95162.53;6204163;28;111299;-67
2023/05/01 12:08:49;;;;;;;2.33;2.20;;;;;;;22.32;38.44;95176.16;6215322;28;109350;-67
2023/05/01 12:11:54;;;;;;;2.30;2.20;;;;;;;22.34;38.48;95174.75;6193707;28;110312;-67
2023/05/01 12:14:57;;;;;;;2.20;2.00;;;;;;;22.33;37.96;95167.06;6190030;28;108832;-68
2023/05/01 12:18:01;;;;;;;1.93;1.83;;;;;;;22.38;37.88;95180.31;6190429;28;108935;-67
2023/05/01 12:21:04;;;;;;;2.20;2.10;;;;;;;22.37;37.60;95189.41;6180688;28;109430;-67
2023/05/01 12:24:09;;;;;;;2.67;2.47;;;;;;;22.33;37.87;95183.06;6193855;28;109199;-67
2023/05/01 12:27:13;;;;;;;2.00;1.90;;;;;;;22.31;37.26;95180.72;6208110;28;109974;-67
2023/05/01 12:30:25;;;;;;;1.70;1.60;;;;;;;22.34;37.08;95171.31;6212690;28;110749;-69
2023/05/01 12:33:28;;;;;;;2.10;1.90;;;;;;;22.32;37.02;95168.16;6178834;28;110775;-69
2023/05/01 12:36:33;;;;;;;2.00;1.87;;;;;;;22.31;37.02;95169.25;6191256;28;108932;-67
2023/05/01 12:39:39;;;;;;;1.90;1.80;;;;;;;22.31;36.86;95174.59;6183926;28;109086;-69
2023/05/01 12:42:43;;;;;;;1.60;1.50;;;;;;;22.25;37.01;95165.16;6196727;28;108958;-68
2023/05/01 12:45:51;;;;;;;1.67;1.57;;;;;;;22.22;36.28;95163.88;6189964;28;109464;-68
2023/05/01 12:48:54;;;;;;;2.90;1.90;;;;;;;22.26;36.51;95174.72;6199009;28;110340;-68
2023/05/01 12:52:00;;;;;;;1.73;1.63;;;;;;;22.25;36.30;95154.50;6196008;28;110013;-67
2023/05/01 12:55:04;;;;;;;1.93;1.73;;;;;;;22.23;36.30;95162.00;6186402;28;109690;-66
2023/05/01 12:58:09;;;;;;;2.20;2.00;;;;;;;22.35;36.44;95168.38;6189350;28;109893;-67
2023/05/01 13:01:13;;;;;;;2.63;1.70;;;;;;;22.39;36.69;95171.22;6199520;28;109027;-67
2023/05/01 13:04:21;;;;;;;1.80;1.70;;;;;;;22.44;36.91;95173.75;6202998;28;108948;-68
2023/05/01 13:07:24;;;;;;;1.83;1.73;;;;;;;22.45;37.18;95169.97;6201065;28;109803;-67
2023/05/01 13:10:34;;;;;;;1.80;1.70;;;;;;;22.48;36.83;95180.03;6200744;28;109570;-67
2023/05/01 13:13:40;;;;;;;4.73;2.00;;;;;;;22.51;37.29;95181.31;6188017;28;108720;-66
2023/05/01 13:16:46;;;;;;;2.10;2.00;;;;;;;22.53;37.71;95171.94;6182929;28;109182;-65
2023/05/01 13:19:54;;;;;;;1.80;1.70;;;;;;;22.51;38.31;95174.09;6177351;28;110059;-69
2023/05/01 13:22:58;;;;;;;2.60;2.00;;;;;;;22.45;38.19;95177.19;6185501;28;110034;-69
2023/05/01 13:26:02;;;;;;;1.90;1.80;;;;;;;22.47;38.50;95183.78;6187777;28;108945;-70
2023/05/01 13:29:06;;;;;;;1.80;1.70;;;;;;;22.43;38.91;95188.16;6179876;28;109245;-70
2023/05/01 13:32:11;;;;;;;2.60;2.40;;;;;;;22.39;39.11;95181.88;6180349;28;109331;-69
2023/05/01 13:35:23;;;;;;;2.83;2.03;;;;;;;22.44;39.05;95189.75;6177885;28;108940;-67
2023/05/01 13:38:26;;;;;;;3.03;1.90;;;;;;;22.49;39.04;95188.81;6195372;28;108997;-66
2023/05/01 13:41:29;;;;;;;2.37;2.17;;;;;;;22.52;38.85;95186.38;6185108;28;109943;-65
2023/05/01 13:44:43;;;;;;;2.23;2.13;;;;;;;22.58;39.06;95190.50;6188393;28;109089;-66
2023/05/01 13:47:46;;;;;;;2.67;2.20;;;;;;;22.58;39.06;95190.50;6186873;28;109278;-70
2023/05/01 13:50:49;;;;;;;2.10;1.90;;;;;;;22.55;39.35;95193.75;6187610;28;108935;-67
2023/05/01 13:53:53;;;;;;;2.20;2.00;;;;;;;22.57;40.00;95194.25;6177960;28;109244;-67
2023/05/01 13:56:56;;;;;;;1.80;1.70;;;;;;;22.52;40.08;95185.56;6189398;28;110321;-66
2023/05/01 14:00:01;;;;;;;2.30;1.90;;;;;;;22.61;40.42;95197.09;6186994;28;109871;-66
2023/05/01 14:03:04;;;;;;;3.33;2.23;;;;;;;22.56;39.93;95198.00;6182933;28;109982;-68
2023/05/01 14:06:09;;;;;;;6.73;3.07;;;;;;;22.57;40.56;95204.13;6187219;28;109443;-67
2023/05/01 14:09:13;;;;;;;5.33;2.53;;;;;;;22.56;40.66;95207.88;6187235;28;109184;-70
2023/05/01 14:12:18;;;;;;;6.37;3.73;;;;;;;22.59;41.33;95207.28;6188097;28;109124;-68
2023/05/01 14:15:24;;;;;;;4.33;2.87;;;;;;;22.37;39.64;95200.06;6186644;28;109997;-67
2023/05/01 14:18:27;;;;;;;4.13;3.17;;;;;;;22.42;40.66;95194.59;6187111;28;109007;-67